createdAt,value
2024-02-18T00:00:30.163Z,12.85
2024-02-18T00:02:02.860Z,11.68
2024-02-18T00:03:35.521Z,11.30
2024-02-18T00:05:08.369Z,12.57
2024-02-18T00:06:40.719Z,11.85
2024-02-18T00:08:12.922Z,13.35
2024-02-18T00:09:46.487Z,15.68
2024-02-18T00:12:50.858Z,13.23
2024-02-18T00:14:23.185Z,13.40
2024-02-18T00:15:55.381Z,13.00
2024-02-18T00:17:27.601Z,13.15
2024-02-18T00:19:01.135Z,13.07
2024-02-18T00:22:06.855Z,12.52
2024-02-18T00:23:39.145Z,12.85
2024-02-18T00:25:11.584Z,13.32
2024-02-18T00:26:54.367Z,13.23
2024-02-18T00:28:30.642Z,13.20
2024-02-18T00:30:02.780Z,12.88
2024-02-18T00:31:35.190Z,13.05
2024-02-18T00:33:07.434Z,12.82
2024-02-18T00:34:39.854Z,13.05
2024-02-18T00:36:12.210Z,12.65
2024-02-18T00:37:44.429Z,13.45
2024-02-18T00:39:17.263Z,11.95
2024-02-18T00:40:49.706Z,12.10
2024-02-18T00:42:21.972Z,12.93
2024-02-18T00:43:54.194Z,12.88
2024-02-18T00:45:26.356Z,13.50
2024-02-18T00:47:05.324Z,13.10
2024-02-18T00:48:38.730Z,13.98
2024-02-18T00:50:11.661Z,13.47
2024-02-18T00:51:43.883Z,12.30
2024-02-18T00:53:16.200Z,12.70
2024-02-18T00:54:48.407Z,13.15
2024-02-18T00:56:20.651Z,13.27
2024-02-18T00:57:52.929Z,13.30
2024-02-18T00:59:25.216Z,11.52
2024-02-18T01:00:57.496Z,11.30
2024-02-18T01:02:31.786Z,11.82
2024-02-18T01:04:04.287Z,11.55
2024-02-18T01:07:11.748Z,12.55
2024-02-18T01:08:44.478Z,11.52
2024-02-18T01:10:16.625Z,12.93
2024-02-18T01:11:48.759Z,13.52
2024-02-18T01:13:20.937Z,12.95
2024-02-18T01:14:53.116Z,13.30
2024-02-18T01:16:25.364Z,11.93
2024-02-18T01:17:57.660Z,12.45
2024-02-18T01:19:29.901Z,13.40
2024-02-18T01:21:02.125Z,12.80
2024-02-18T01:22:35.380Z,14.05
2024-02-18T01:24:07.820Z,13.70
2024-02-18T01:25:40.106Z,11.65
2024-02-18T01:27:12.212Z,12.70
2024-02-18T01:28:44.311Z,12.07
2024-02-18T01:30:16.503Z,11.55
2024-02-18T01:31:48.893Z,12.48
2024-02-18T01:33:22.389Z,13.45
2024-02-18T01:36:28.729Z,12.15
2024-02-18T01:38:00.935Z,13.15
2024-02-18T01:39:33.454Z,12.68
2024-02-18T01:41:05.713Z,12.30
2024-02-18T01:42:39.967Z,11.57
2024-02-18T01:44:12.170Z,11.95
2024-02-18T01:45:44.390Z,12.85
2024-02-18T01:47:16.618Z,12.80
2024-02-18T01:48:49.525Z,14.25
2024-02-18T01:50:22.244Z,13.13
2024-02-18T01:51:54.750Z,12.88
2024-02-18T01:53:26.929Z,13.23
2024-02-18T01:54:59.268Z,12.95
2024-02-18T01:56:31.611Z,12.98
2024-02-18T01:58:05.880Z,13.43
2024-02-18T01:59:38.262Z,14.02
2024-02-18T02:01:10.714Z,13.00
2024-02-18T02:02:43.806Z,14.65
2024-02-18T02:04:16.029Z,13.70
2024-02-18T02:05:49.684Z,13.70
2024-02-18T02:07:25.667Z,13.55
2024-02-18T02:09:00.931Z,13.98
2024-02-18T02:10:33.138Z,18.45
2024-02-18T02:12:06.510Z,12.57
2024-02-18T02:13:38.745Z,12.63
2024-02-18T02:15:11.946Z,13.07
2024-02-18T02:16:44.227Z,13.00
2024-02-18T02:18:16.520Z,14.15
2024-02-18T02:19:48.872Z,12.18
2024-02-18T02:22:53.830Z,13.55
2024-02-18T02:24:26.079Z,13.73
2024-02-18T02:25:58.218Z,11.82
2024-02-18T02:27:37.949Z,10.93
2024-02-18T02:29:17.025Z,12.30
2024-02-18T02:30:50.075Z,11.80
2024-02-18T02:32:22.317Z,11.30
2024-02-18T02:33:54.594Z,13.10
2024-02-18T02:35:29.811Z,11.68
2024-02-18T02:37:02.186Z,11.50
2024-02-18T02:38:37.257Z,11.98
2024-02-18T02:40:09.805Z,11.57
2024-02-18T02:41:42.221Z,12.87
2024-02-18T02:43:17.887Z,13.32
2024-02-18T02:44:50.152Z,12.93
2024-02-18T02:46:22.517Z,12.27
2024-02-18T02:47:54.943Z,12.45
2024-02-18T02:49:27.332Z,16.25
2024-02-18T02:50:59.740Z,14.93
2024-02-18T02:52:31.956Z,16.00
2024-02-18T02:54:04.459Z,16.50
2024-02-18T02:55:36.623Z,15.70
2024-02-18T02:57:08.836Z,13.52
2024-02-18T02:58:40.965Z,13.35
2024-02-18T03:00:13.553Z,13.82
2024-02-18T03:01:45.695Z,14.30
2024-02-18T03:03:18.074Z,14.43
2024-02-18T03:04:50.356Z,14.25
2024-02-18T03:06:22.836Z,14.43
2024-02-18T03:07:55.140Z,11.55
2024-02-18T03:09:27.390Z,11.23
2024-02-18T03:10:59.825Z,12.55
2024-02-18T03:12:32.484Z,12.68
2024-02-18T03:14:04.837Z,12.70
2024-02-18T03:15:37.508Z,12.18
2024-02-18T03:17:09.767Z,12.30
2024-02-18T03:18:44.633Z,14.38
2024-02-18T03:20:17.456Z,13.13
2024-02-18T03:21:50.077Z,15.52
2024-02-18T03:23:22.283Z,15.80
2024-02-18T03:24:54.500Z,13.35
2024-02-18T03:26:27.581Z,15.77
2024-02-18T03:28:01.430Z,15.95
2024-02-18T03:29:37.305Z,17.92
2024-02-18T03:31:18.481Z,15.52
2024-02-18T03:32:50.743Z,12.00
2024-02-18T03:34:23.441Z,13.18
2024-02-18T03:35:55.610Z,14.23
2024-02-18T03:37:27.766Z,15.10
2024-02-18T03:39:00.180Z,15.73
2024-02-18T03:40:33.377Z,17.27
2024-02-18T03:42:05.907Z,16.00
2024-02-18T03:43:38.050Z,17.58
2024-02-18T03:45:10.322Z,16.92
2024-02-18T03:46:42.567Z,15.68
2024-02-18T03:48:14.913Z,16.88
2024-02-18T03:49:47.274Z,16.05
2024-02-18T03:51:19.581Z,15.77
2024-02-18T03:52:51.789Z,17.40
2024-02-18T03:54:24.070Z,16.50
2024-02-18T03:55:56.253Z,13.95
2024-02-18T03:57:28.513Z,13.07
2024-02-18T03:59:00.696Z,13.65
2024-02-18T04:00:33.032Z,12.75
2024-02-18T04:02:05.269Z,14.18
2024-02-18T04:03:37.498Z,12.98
2024-02-18T04:05:12.229Z,12.63
2024-02-18T04:06:45.266Z,12.35
2024-02-18T04:08:17.496Z,12.25
2024-02-18T04:09:49.601Z,11.95
2024-02-18T04:11:21.928Z,12.93
2024-02-18T04:12:54.269Z,11.80
2024-02-18T04:14:26.497Z,11.52
2024-02-18T04:15:58.646Z,10.82
2024-02-18T04:17:30.984Z,10.90
2024-02-18T04:19:03.491Z,11.40
2024-02-18T04:20:35.786Z,12.80
2024-02-18T04:22:08.302Z,19.65
2024-02-18T04:23:40.586Z,29.70
2024-02-18T04:25:13.451Z,14.13
2024-02-18T04:26:45.608Z,18.92
2024-02-18T04:28:17.790Z,29.75
2024-02-18T04:29:50.059Z,27.73
2024-02-18T04:31:22.394Z,17.98
2024-02-18T04:32:54.605Z,17.55
2024-02-18T04:34:26.845Z,22.90
2024-02-18T04:35:59.332Z,22.52
2024-02-18T04:37:31.477Z,15.38
2024-02-18T04:39:03.938Z,13.70
2024-02-18T04:40:36.069Z,14.45
2024-02-18T04:42:08.455Z,14.45
2024-02-18T04:43:40.555Z,12.75
2024-02-18T04:45:12.821Z,11.82
2024-02-18T04:46:44.893Z,12.05
2024-02-18T04:48:17.069Z,10.85
2024-02-18T04:49:49.331Z,10.55
2024-02-18T04:51:21.635Z,11.88
2024-02-18T04:52:54.074Z,10.30
2024-02-18T04:54:27.535Z,13.35
2024-02-18T04:55:59.673Z,20.45
2024-02-18T04:57:31.983Z,17.80
2024-02-18T04:59:04.459Z,37.35
2024-02-18T05:00:36.705Z,14.23
2024-02-18T05:02:09.854Z,16.02
2024-02-18T05:03:45.055Z,14.85
2024-02-18T05:05:17.276Z,29.48
2024-02-18T05:06:50.581Z,14.90
2024-02-18T05:08:23.046Z,20.17
2024-02-18T05:09:55.237Z,23.50
2024-02-18T05:11:27.527Z,10.48
2024-02-18T05:12:59.728Z,12.75
2024-02-18T05:14:34.911Z,13.55
2024-02-18T05:16:08.936Z,14.07
2024-02-18T05:17:41.317Z,14.40
2024-02-18T05:19:14.121Z,10.48
2024-02-18T05:20:46.765Z,10.00
2024-02-18T05:22:20.715Z,11.77
2024-02-18T05:23:55.930Z,12.25
2024-02-18T05:25:29.103Z,12.63
2024-02-18T05:27:01.987Z,12.40
2024-02-18T05:28:35.547Z,10.05
2024-02-18T05:31:40.273Z,9.73
2024-02-18T05:33:12.468Z,9.45
2024-02-18T05:34:44.846Z,8.68
2024-02-18T05:36:18.042Z,9.70
2024-02-18T05:37:50.328Z,8.65
2024-02-18T05:39:22.803Z,8.35
2024-02-18T05:40:55.016Z,9.02
2024-02-18T05:42:27.278Z,14.05
2024-02-18T05:43:59.471Z,11.05
2024-02-18T05:45:32.934Z,11.82
2024-02-18T05:48:37.848Z,15.70
2024-02-18T05:50:10.299Z,9.25
2024-02-18T05:51:42.513Z,8.65
2024-02-18T05:53:14.795Z,9.88
2024-02-18T05:54:47.224Z,10.15
2024-02-18T05:56:19.401Z,8.65
2024-02-18T05:57:51.512Z,10.50
2024-02-18T05:59:24.082Z,10.02
2024-02-18T06:00:56.522Z,12.07
2024-02-18T06:02:29.167Z,11.23
2024-02-18T06:04:01.406Z,12.10
2024-02-18T06:05:33.919Z,10.85
2024-02-18T06:07:06.293Z,9.68
2024-02-18T06:08:38.801Z,9.52
2024-02-18T06:10:11.420Z,9.05
2024-02-18T06:54:28.982Z,9.98
2024-02-18T06:56:01.285Z,10.95
2024-02-18T06:57:33.710Z,10.10
2024-02-18T06:59:06.125Z,9.48
2024-02-18T07:00:39.159Z,9.38
2024-02-18T07:02:11.562Z,10.00
2024-02-18T07:03:43.844Z,9.60
2024-02-18T07:05:16.103Z,11.00
2024-02-18T07:06:48.526Z,9.15
2024-02-18T07:08:26.888Z,10.30
2024-02-18T07:09:59.206Z,10.38
2024-02-18T07:11:32.079Z,10.32
2024-02-18T07:13:05.120Z,10.23
2024-02-18T07:14:37.879Z,11.00
2024-02-18T07:16:10.348Z,10.23
2024-02-18T07:17:43.102Z,11.07
2024-02-18T07:19:15.545Z,10.10
2024-02-18T07:20:47.909Z,10.90
2024-02-18T07:22:20.344Z,11.82
2024-02-18T07:23:52.872Z,11.82
2024-02-18T07:25:25.091Z,11.30
2024-02-18T07:26:57.228Z,12.43
2024-02-18T07:28:29.483Z,18.80
2024-02-18T07:30:01.835Z,21.65
2024-02-18T07:31:38.568Z,16.10
2024-02-18T07:33:12.322Z,15.35
2024-02-18T07:34:44.776Z,22.40
2024-02-18T07:36:17.131Z,22.15
2024-02-18T07:37:49.374Z,19.98
2024-02-18T07:39:26.014Z,16.73
2024-02-18T07:40:58.285Z,17.85
2024-02-18T07:42:31.071Z,16.27
2024-02-18T07:44:03.838Z,15.80
2024-02-18T07:45:36.449Z,14.60
2024-02-18T07:47:08.792Z,15.00
2024-02-18T07:48:41.213Z,13.88
2024-02-18T07:50:13.505Z,15.13
2024-02-18T07:51:45.805Z,15.30
2024-02-18T07:53:18.081Z,17.83
2024-02-18T07:54:50.385Z,14.80
2024-02-18T07:56:22.723Z,15.52
2024-02-18T07:57:55.013Z,17.13
2024-02-18T07:59:28.991Z,17.67
2024-02-18T08:01:01.364Z,19.58
2024-02-18T08:02:33.629Z,17.60
2024-02-18T08:04:06.668Z,15.57
2024-02-18T08:05:40.183Z,15.55
2024-02-18T08:08:45.150Z,14.98
2024-02-18T08:10:18.286Z,14.38
2024-02-18T08:11:50.826Z,15.35
2024-02-18T08:13:23.797Z,14.47
2024-02-18T08:14:56.215Z,14.13
2024-02-18T08:16:30.311Z,14.43
2024-02-18T08:18:02.730Z,13.23
2024-02-18T08:19:35.450Z,12.15
2024-02-18T08:21:07.897Z,11.95
2024-02-18T08:22:40.227Z,11.63
2024-02-18T08:24:12.482Z,11.05
2024-02-18T08:25:45.076Z,10.57
2024-02-18T08:27:17.535Z,10.30
2024-02-18T08:28:50.549Z,12.65
2024-02-18T08:30:22.952Z,12.55
2024-02-18T08:32:02.219Z,14.55
2024-02-18T08:33:34.888Z,13.38
2024-02-18T08:35:08.489Z,12.48
2024-02-18T08:36:41.193Z,13.13
2024-02-18T08:38:13.931Z,14.13
2024-02-18T08:39:46.543Z,13.82
2024-02-18T08:41:22.850Z,15.88
2024-02-18T08:42:55.539Z,18.40
2024-02-18T08:44:27.851Z,24.88
2024-02-18T08:46:02.923Z,42.65
2024-02-18T08:47:35.274Z,42.70
2024-02-18T08:49:07.729Z,41.13
2024-02-18T08:50:40.661Z,36.40
2024-02-18T08:52:13.273Z,45.20
2024-02-18T08:53:45.572Z,33.13
2024-02-18T08:55:18.123Z,26.42
2024-02-18T08:56:50.518Z,25.70
2024-02-18T08:58:22.799Z,25.27
2024-02-18T08:59:55.436Z,22.67
2024-02-18T09:01:28.187Z,16.63
2024-02-18T09:03:02.655Z,17.83
2024-02-18T09:04:35.066Z,16.02
2024-02-18T09:06:07.608Z,13.77
2024-02-18T09:07:40.303Z,13.00
2024-02-18T09:09:12.898Z,17.48
2024-02-18T09:10:45.280Z,16.83
2024-02-18T09:12:17.641Z,14.40
2024-02-18T09:13:50.146Z,18.38
2024-02-18T09:15:22.691Z,16.20
2024-02-18T09:16:55.068Z,13.60
2024-02-18T09:18:29.228Z,11.73
2024-02-18T09:20:04.143Z,11.82
2024-02-18T09:21:36.578Z,11.45
2024-02-18T09:23:08.843Z,12.23
2024-02-18T09:24:44.766Z,12.90
2024-02-18T09:26:17.085Z,11.70
2024-02-18T09:27:50.493Z,14.20
2024-02-18T09:30:57.116Z,15.30
2024-02-18T09:32:29.342Z,14.27
2024-02-18T09:34:01.839Z,14.65
2024-02-18T09:35:35.663Z,14.97
2024-02-18T09:37:08.109Z,13.95
2024-02-18T09:38:41.193Z,12.82
2024-02-18T09:40:13.733Z,14.98
2024-02-18T09:41:47.712Z,12.67
2024-02-18T09:43:20.641Z,13.48
2024-02-18T09:44:53.292Z,12.98
2024-02-18T09:46:26.252Z,13.02
2024-02-18T09:47:58.990Z,12.98
2024-02-18T09:49:31.638Z,16.67
2024-02-18T09:51:07.524Z,15.00
2024-02-18T09:52:44.242Z,12.95
2024-02-18T09:54:17.241Z,12.65
2024-02-18T09:55:50.397Z,12.77
2024-02-18T09:57:22.944Z,12.75
2024-02-18T10:00:28.260Z,13.43
2024-02-18T10:02:01.435Z,13.65
2024-02-18T10:03:34.320Z,13.10
2024-02-18T10:05:07.926Z,12.25
2024-02-18T10:06:40.441Z,13.65
2024-02-18T10:08:13.283Z,12.23
2024-02-18T10:09:45.620Z,13.18
2024-02-18T10:11:17.961Z,13.20
2024-02-18T10:12:51.458Z,13.68
2024-02-18T10:16:01.992Z,13.50
2024-02-18T10:17:34.725Z,12.30
2024-02-18T10:19:09.956Z,12.18
2024-02-18T10:20:43.026Z,12.52
2024-02-18T10:22:15.839Z,12.98
2024-02-18T10:23:48.223Z,13.10
2024-02-18T10:25:20.728Z,13.07
2024-02-18T10:26:53.657Z,14.10
2024-02-18T10:28:29.356Z,13.02
2024-02-18T10:30:02.109Z,12.68
2024-02-18T10:31:34.807Z,13.60
2024-02-18T10:33:07.355Z,13.65
2024-02-18T10:34:39.919Z,13.10
2024-02-18T10:36:14.931Z,14.03
2024-02-18T10:37:51.218Z,13.73
2024-02-18T10:39:26.263Z,13.93
2024-02-18T10:41:09.895Z,13.48
2024-02-18T10:42:50.142Z,14.93
2024-02-18T10:44:22.555Z,14.40
2024-02-18T10:45:55.964Z,13.38
2024-02-18T10:49:16.660Z,13.98
2024-02-18T10:50:51.507Z,14.15
2024-02-18T10:52:29.432Z,14.38
2024-02-18T10:54:28.996Z,15.25
2024-02-18T10:56:09.435Z,15.52
2024-02-18T10:57:47.729Z,14.98
2024-02-18T10:59:27.701Z,14.45
2024-02-18T11:01:02.750Z,14.10
2024-02-18T11:02:53.745Z,14.38
2024-02-18T11:04:27.016Z,14.63
2024-02-18T11:06:00.394Z,14.50
2024-02-18T11:09:06.027Z,14.32
2024-02-18T11:10:39.313Z,14.65
2024-02-18T11:12:11.877Z,14.65
2024-02-18T11:13:45.582Z,15.87
2024-02-18T11:15:18.221Z,18.52
2024-02-18T11:16:51.043Z,15.90
2024-02-18T11:18:24.139Z,16.77
2024-02-18T11:19:57.831Z,18.40
2024-02-18T11:21:32.491Z,17.58
2024-02-18T11:23:05.512Z,19.60
2024-02-18T11:24:37.953Z,20.10
2024-02-18T11:26:10.580Z,20.33
2024-02-18T11:27:42.867Z,19.73
2024-02-18T11:29:15.374Z,14.93
2024-02-18T11:30:47.835Z,15.33
2024-02-18T11:32:21.659Z,13.80
2024-02-18T11:33:54.650Z,15.10
2024-02-18T11:35:27.096Z,14.90
2024-02-18T11:36:59.334Z,16.58
2024-02-18T11:38:31.629Z,18.65
2024-02-18T11:40:20.954Z,16.13
2024-02-18T11:41:55.698Z,18.67
2024-02-18T11:43:28.063Z,15.98
2024-02-18T11:45:10.243Z,17.63
2024-02-18T11:46:45.117Z,19.58
2024-02-18T11:48:17.448Z,16.33
2024-02-18T11:49:49.923Z,17.05
2024-02-18T11:51:23.692Z,15.93
2024-02-18T11:52:57.263Z,15.93
2024-02-18T11:54:29.926Z,15.82
2024-02-18T11:56:03.584Z,15.93
2024-02-18T11:57:36.294Z,17.08
2024-02-18T11:59:09.225Z,18.05
2024-02-18T12:00:41.919Z,17.45
2024-02-18T12:02:22.089Z,17.77
2024-02-18T12:03:57.982Z,19.98
2024-02-18T12:05:31.680Z,20.35
2024-02-18T12:07:05.364Z,18.52
2024-02-18T12:08:38.600Z,18.45
2024-02-18T12:10:11.165Z,21.55
2024-02-18T12:11:46.127Z,19.70
2024-02-18T12:13:19.014Z,19.88
2024-02-18T12:14:58.414Z,16.02
2024-02-18T12:16:30.776Z,16.13
2024-02-18T12:18:03.763Z,15.80
2024-02-18T12:19:36.348Z,15.55
2024-02-18T12:21:09.146Z,15.57
2024-02-18T12:22:42.852Z,14.57
2024-02-18T12:24:16.746Z,16.45
2024-02-18T12:25:49.273Z,15.57
2024-02-18T12:27:22.299Z,15.88
2024-02-18T12:28:54.542Z,17.45
2024-02-18T12:30:26.784Z,15.77
2024-02-18T12:31:59.153Z,16.08
2024-02-18T12:33:32.522Z,16.90
2024-02-18T12:35:08.652Z,16.10
2024-02-18T12:36:42.287Z,16.23
2024-02-18T12:38:16.786Z,15.70
2024-02-18T12:39:52.413Z,16.75
2024-02-18T12:41:24.613Z,17.33
2024-02-18T12:43:25.147Z,16.20
2024-02-18T12:46:29.070Z,14.93
2024-02-18T12:49:34.903Z,14.90
2024-02-18T12:51:12.344Z,14.13
2024-02-18T12:52:48.112Z,16.15
2024-02-18T12:54:21.993Z,16.65
2024-02-18T12:55:54.346Z,15.30
2024-02-18T12:57:27.022Z,16.90
2024-02-18T12:58:59.829Z,14.60
2024-02-18T13:00:32.932Z,14.88
2024-02-18T13:02:08.180Z,16.40
2024-02-18T13:03:41.053Z,16.88
2024-02-18T13:05:17.808Z,16.75
2024-02-18T13:07:11.586Z,15.25
2024-02-18T13:08:43.817Z,15.15
2024-02-18T13:10:16.198Z,16.70
2024-02-18T13:11:48.714Z,16.80
2024-02-18T13:13:20.986Z,15.23
2024-02-18T13:14:53.379Z,16.38
2024-02-18T13:16:25.664Z,21.25
2024-02-18T13:17:58.093Z,21.42
2024-02-18T13:19:30.828Z,20.60
2024-02-18T13:21:03.184Z,20.92
2024-02-18T13:22:35.940Z,20.17
2024-02-18T13:24:08.240Z,21.50
2024-02-18T13:25:41.147Z,21.33
2024-02-18T13:27:13.603Z,22.08
2024-02-18T13:28:45.992Z,21.50
2024-02-18T13:32:06.369Z,20.88
2024-02-18T13:33:38.867Z,21.23
2024-02-18T13:35:14.200Z,22.02
2024-02-18T13:36:48.597Z,21.80
2024-02-18T13:38:21.520Z,22.10
2024-02-18T13:39:53.860Z,21.52
2024-02-18T13:41:26.331Z,22.58
2024-02-18T13:42:59.238Z,19.98
2024-02-18T13:44:33.338Z,21.17
2024-02-18T13:46:06.219Z,20.23
2024-02-18T13:47:38.659Z,19.60
2024-02-18T13:49:14.072Z,19.95
2024-02-18T13:50:46.962Z,21.10
2024-02-18T13:52:19.100Z,20.90
2024-02-18T13:53:51.302Z,20.85
2024-02-18T13:55:23.679Z,19.77
2024-02-18T13:56:56.324Z,20.48
2024-02-18T13:58:28.785Z,20.85
2024-02-18T14:00:00.990Z,21.13
2024-02-18T14:01:38.689Z,21.20
2024-02-18T14:03:11.339Z,19.92
2024-02-18T14:04:43.705Z,21.00
2024-02-18T14:06:16.022Z,20.45
2024-02-18T14:07:48.746Z,20.85
2024-02-18T14:09:21.353Z,20.75
2024-02-18T14:10:53.959Z,20.02
2024-02-18T14:12:26.268Z,21.67
2024-02-18T14:13:58.865Z,20.65
2024-02-18T14:15:40.026Z,21.73
2024-02-18T14:17:12.849Z,20.85
2024-02-18T14:18:45.637Z,20.13
2024-02-18T14:20:18.484Z,20.25
2024-02-18T14:21:51.729Z,20.00
2024-02-18T14:23:24.048Z,19.65
2024-02-18T14:24:58.179Z,19.73
2024-02-18T14:26:31.236Z,21.48
2024-02-18T14:28:04.270Z,20.05
2024-02-18T14:29:37.217Z,20.63
2024-02-18T14:31:09.648Z,20.40
2024-02-18T14:32:42.372Z,20.90
2024-02-18T14:34:14.726Z,20.48
2024-02-18T14:35:47.255Z,20.65
2024-02-18T14:37:19.471Z,21.42
2024-02-18T14:38:53.862Z,20.13
2024-02-18T14:40:27.747Z,20.33
2024-02-18T14:42:00.723Z,20.33
2024-02-18T14:43:33.426Z,20.35
2024-02-18T14:45:06.200Z,20.23
2024-02-18T14:46:38.436Z,22.08
2024-02-18T14:48:10.861Z,20.95
2024-02-18T14:49:48.127Z,21.23
2024-02-18T14:51:20.773Z,20.48
2024-02-18T14:52:53.290Z,21.25
2024-02-18T14:54:25.830Z,21.50
2024-02-18T14:56:01.006Z,21.07
2024-02-18T14:57:34.255Z,22.50
2024-02-18T14:59:06.484Z,19.88
2024-02-18T15:00:39.539Z,20.77
2024-02-18T15:02:11.797Z,22.20
2024-02-18T16:53:13.480Z,46.25
2024-02-18T16:54:46.338Z,69.85
2024-02-18T16:56:20.926Z,37.47
2024-02-18T16:57:53.720Z,29.83
2024-02-18T16:59:26.193Z,31.80
2024-02-18T17:00:58.578Z,31.02
2024-02-18T17:02:31.244Z,33.72
2024-02-18T17:04:04.696Z,31.73
2024-02-18T17:07:10.005Z,26.30
2024-02-18T17:08:42.504Z,23.75
2024-02-18T17:10:15.323Z,25.30
2024-02-18T17:11:49.163Z,26.17
2024-02-18T17:13:21.578Z,27.60
2024-02-18T17:14:54.346Z,30.87
2024-02-18T17:16:26.936Z,29.77
2024-02-18T17:17:59.455Z,34.17
2024-02-18T17:19:32.654Z,36.55
2024-02-18T17:21:05.237Z,38.78
2024-02-18T17:22:37.465Z,34.28
2024-02-18T17:24:09.807Z,26.88
2024-02-18T17:27:15.115Z,26.27
2024-02-18T17:28:50.457Z,34.13
2024-02-18T17:30:23.266Z,37.03
2024-02-18T17:31:56.630Z,36.38
2024-02-18T17:33:34.902Z,33.63
2024-02-18T17:35:07.648Z,27.02
2024-02-18T17:36:39.952Z,27.63
2024-02-18T17:38:12.276Z,30.95
2024-02-18T17:39:45.505Z,28.85
2024-02-18T17:41:17.862Z,29.42
2024-02-18T17:42:51.490Z,28.52
2024-02-18T17:44:23.876Z,27.92
2024-02-18T17:45:56.009Z,26.75
2024-02-18T17:47:29.870Z,28.52
2024-02-18T17:49:02.418Z,28.30
2024-02-18T17:50:38.022Z,27.37
2024-02-18T17:52:12.731Z,28.55
2024-02-18T17:53:45.504Z,26.27
2024-02-18T17:55:18.084Z,24.20
2024-02-18T17:56:51.405Z,27.17
2024-02-18T17:58:24.690Z,24.08
2024-02-18T18:01:30.169Z,24.58
2024-02-18T18:03:02.473Z,26.23
2024-02-18T18:04:35.149Z,23.85
2024-02-18T18:06:08.067Z,23.90
2024-02-18T18:07:40.526Z,23.60
2024-02-18T18:09:13.142Z,24.38
2024-02-18T18:10:45.595Z,25.10
2024-02-18T18:12:18.076Z,24.20
2024-02-18T18:13:50.411Z,24.42
2024-02-18T18:15:23.742Z,23.02
2024-02-18T18:18:28.647Z,21.85
2024-02-18T18:20:01.423Z,21.67
2024-02-18T18:21:33.900Z,25.00
2024-02-18T18:23:06.621Z,24.15
2024-02-18T18:24:39.321Z,25.33
2024-02-18T18:26:11.763Z,25.73
2024-02-18T18:27:44.355Z,24.02
2024-02-18T18:29:19.254Z,23.08
2024-02-18T18:30:51.854Z,23.15
2024-02-18T18:32:24.513Z,23.27
2024-02-18T18:33:57.275Z,25.40
2024-02-18T18:35:30.283Z,23.85
2024-02-18T18:37:05.243Z,22.30
2024-02-18T18:38:38.138Z,22.27
2024-02-18T18:40:11.527Z,22.27
2024-02-18T18:41:44.020Z,23.70
2024-02-18T18:43:16.812Z,24.73
2024-02-18T18:44:50.553Z,21.83
2024-02-18T18:46:24.157Z,22.40
2024-02-18T18:47:59.488Z,22.15
2024-02-18T18:49:31.937Z,19.83
2024-02-18T18:51:04.622Z,19.90
2024-02-18T18:52:38.626Z,19.97
2024-02-18T18:54:12.712Z,18.80
2024-02-18T18:55:45.251Z,19.02
2024-02-18T18:57:17.588Z,19.73
2024-02-18T18:58:50.680Z,18.25
2024-02-18T19:00:24.578Z,19.83
2024-02-18T19:02:00.941Z,19.17
2024-02-18T19:03:33.808Z,18.30
2024-02-18T19:05:06.815Z,17.40
2024-02-18T19:06:39.225Z,16.95
2024-02-18T19:08:11.587Z,17.98
2024-02-18T19:09:43.937Z,18.45
2024-02-18T19:11:16.384Z,18.02
2024-02-18T19:12:48.919Z,17.58
2024-02-18T19:14:21.542Z,18.38
2024-02-18T19:15:56.706Z,17.30
2024-02-18T19:17:30.335Z,17.75
2024-02-18T19:19:02.820Z,17.83
2024-02-18T19:20:35.648Z,18.83
2024-02-18T19:22:08.267Z,16.60
2024-02-18T19:23:40.879Z,17.43
2024-02-18T19:25:13.249Z,18.73
2024-02-18T19:26:45.995Z,17.05
2024-02-18T19:28:18.340Z,17.23
2024-02-18T19:29:50.648Z,17.80
2024-02-18T19:31:23.176Z,17.45
2024-02-18T19:32:56.217Z,19.23
2024-02-18T19:34:28.677Z,18.85
2024-02-18T19:36:02.415Z,19.25
2024-02-18T19:37:34.673Z,21.23
2024-02-18T19:39:07.036Z,18.17
2024-02-18T19:40:39.572Z,19.77
2024-02-18T19:42:12.779Z,20.30
2024-02-18T19:43:45.078Z,19.30
2024-02-18T19:45:20.891Z,18.45
2024-02-18T19:46:53.293Z,17.38
2024-02-18T19:48:25.569Z,18.65
2024-02-18T19:49:57.963Z,17.88
2024-02-18T19:51:30.347Z,18.05
2024-02-18T19:53:02.718Z,18.65
2024-02-18T21:58:58.561Z,33.35
2024-02-18T22:00:31.343Z,36.20
